Weston, Nebraska
Current Conditions -  °F | °C
As of 12:35 PM on Sunday 21 Dec 2014 (Local Time) from KAHQ Reporting Station
Overcast Overcast  
Wind Chill: 32°   Ceiling: 600
Heat Index: 41°   Visibility: 7mi
Dew Point: 37°   Wind: 20mph
Humidity: 87%   Direction: 190°S
Pressure: 29.76"   Gusts: 25mph
Location:  41.19°N, 96.74°W
Report Text: KAHQ 211835Z AUTO 19017G22KT 7SM OVC006 05/03 A2976 RMK AO2 T00500030
Loading
Personal Weather Stations






























Interactive Weather Map New forecast layout! Learn more

10-Day Weather Forecast

Advertisements
Track Severe Weather on mobile